createdAt,value
2023-03-05T00:00:19.167Z,24.37
2023-03-05T00:02:45.968Z,20.63
2023-03-05T00:05:12.732Z,25.47
2023-03-05T00:07:39.376Z,25.80
2023-03-05T00:10:06.617Z,24.27
2023-03-05T00:12:33.553Z,18.57
2023-03-05T00:15:00.219Z,19.13
2023-03-05T00:17:26.814Z,36.10
2023-03-05T00:19:53.498Z,25.77
2023-03-05T00:22:20.143Z,25.33
2023-03-05T00:24:46.726Z,25.63
2023-03-05T00:27:13.339Z,26.47
2023-03-05T00:29:40.210Z,30.33
2023-03-05T00:32:08.101Z,27.00
2023-03-05T00:34:36.261Z,32.40
2023-03-05T00:37:03.095Z,30.97
2023-03-05T00:39:29.710Z,29.57
2023-03-05T00:41:56.996Z,27.43
2023-03-05T00:44:24.133Z,26.63
2023-03-05T00:46:50.926Z,27.17
2023-03-05T00:49:17.619Z,28.97
2023-03-05T00:51:44.634Z,40.80
2023-03-05T00:54:11.321Z,32.53
2023-03-05T00:56:38.000Z,28.30
2023-03-05T00:59:05.006Z,36.30
2023-03-05T01:01:31.797Z,34.63
2023-03-05T01:03:59.912Z,23.00
2023-03-05T01:06:27.221Z,28.27
2023-03-05T01:08:54.417Z,25.33
2023-03-05T01:11:21.010Z,34.00
2023-03-05T01:13:47.750Z,28.63
2023-03-05T01:16:14.401Z,30.43
2023-03-05T01:18:41.097Z,27.07
2023-03-05T01:21:07.992Z,29.73
2023-03-05T01:23:37.203Z,28.00
2023-03-05T01:26:04.959Z,24.20
2023-03-05T01:28:32.573Z,31.53
2023-03-05T01:30:59.261Z,26.20
2023-03-05T01:33:26.056Z,23.23
2023-03-05T01:35:52.823Z,32.23
2023-03-05T01:38:19.581Z,24.17
2023-03-05T01:40:46.683Z,19.33
2023-03-05T01:43:13.541Z,26.73
2023-03-05T01:46:18.741Z,23.47
2023-03-05T01:48:54.546Z,19.13
2023-03-05T01:51:25.093Z,20.53
2023-03-05T01:53:53.616Z,15.87
2023-03-05T01:56:21.175Z,15.63
2023-03-05T01:58:48.073Z,15.10
2023-03-05T02:01:14.881Z,15.70
2023-03-05T02:03:42.205Z,12.73
2023-03-05T02:06:09.426Z,12.63
2023-03-05T02:08:36.158Z,19.73
2023-03-05T02:11:03.668Z,20.43
2023-03-05T02:13:35.697Z,16.20
2023-03-05T02:16:02.893Z,12.07
2023-03-05T02:18:29.922Z,11.27
2023-03-05T02:20:56.511Z,15.00
2023-03-05T02:23:29.334Z,16.67
2023-03-05T02:25:56.232Z,16.70
2023-03-05T02:28:39.682Z,20.47
2023-03-05T02:31:17.319Z,19.47
2023-03-05T02:33:44.875Z,16.90
2023-03-05T02:36:12.227Z,16.60
2023-03-05T02:38:40.485Z,19.77
2023-03-05T02:41:07.644Z,14.37
2023-03-05T02:43:35.274Z,19.53
2023-03-05T02:46:02.957Z,14.93
2023-03-05T02:48:29.791Z,17.57
2023-03-05T02:50:57.185Z,15.43
2023-03-05T02:53:24.208Z,16.73
2023-03-05T02:55:51.616Z,14.77
2023-03-05T02:58:18.629Z,16.10
2023-03-05T03:00:46.743Z,15.20
2023-03-05T03:03:13.652Z,15.03
2023-03-05T03:05:40.881Z,16.50
2023-03-05T03:08:07.832Z,15.80
2023-03-05T03:10:34.517Z,14.60
2023-03-05T03:13:01.124Z,13.67
2023-03-05T03:15:27.763Z,17.77
2023-03-05T03:17:54.962Z,15.87
2023-03-05T03:20:22.155Z,17.17
2023-03-05T03:22:48.870Z,15.23
2023-03-05T03:25:18.249Z,21.30
2023-03-05T03:27:45.036Z,17.37
2023-03-05T03:30:13.207Z,14.63
2023-03-05T03:32:40.145Z,14.33
2023-03-05T03:35:07.633Z,15.00
2023-03-05T03:37:34.267Z,18.60
2023-03-05T03:40:01.086Z,15.93
2023-03-05T03:42:27.952Z,15.00
2023-03-05T03:44:54.586Z,18.13
2023-03-05T03:47:21.307Z,15.50
2023-03-05T03:49:48.022Z,15.80
2023-03-05T03:52:14.894Z,17.93
2023-03-05T03:54:41.504Z,18.20
2023-03-05T03:57:08.172Z,16.50
2023-03-05T03:59:34.764Z,17.93
2023-03-05T04:02:01.440Z,17.47
2023-03-05T04:04:29.087Z,18.83
2023-03-05T04:06:56.510Z,15.60
2023-03-05T04:09:23.189Z,24.03
2023-03-05T04:11:49.808Z,22.70
2023-03-05T04:14:16.396Z,20.93
2023-03-05T04:16:42.971Z,24.23
2023-03-05T04:19:09.661Z,15.67
2023-03-05T04:21:36.294Z,16.17
2023-03-05T04:24:03.063Z,17.10
2023-03-05T04:26:29.644Z,17.07
2023-03-05T04:28:56.267Z,16.87
2023-03-05T04:31:23.765Z,18.53
2023-03-05T04:33:50.579Z,17.33
2023-03-05T04:36:17.241Z,16.60
2023-03-05T04:38:43.921Z,18.57
2023-03-05T04:41:10.488Z,17.93
2023-03-05T04:43:37.123Z,18.17
2023-03-05T04:46:03.904Z,16.43
2023-03-05T04:48:30.582Z,17.40
2023-03-05T04:50:57.877Z,18.00
2023-03-05T04:53:24.876Z,18.43
2023-03-05T04:55:55.279Z,21.63
2023-03-05T04:58:23.337Z,18.20
2023-03-05T05:00:50.011Z,17.30
2023-03-05T05:03:16.650Z,19.00
2023-03-05T05:05:43.261Z,17.07
2023-03-05T05:08:10.465Z,21.27
2023-03-05T05:10:39.545Z,22.23
2023-03-05T05:13:06.393Z,18.20
2023-03-05T05:15:33.063Z,21.40
2023-03-05T05:17:59.686Z,19.83
2023-03-05T05:20:26.268Z,19.60
2023-03-05T05:22:52.891Z,16.93
2023-03-05T05:25:19.524Z,21.93
2023-03-05T05:27:46.114Z,20.00
2023-03-05T05:30:13.109Z,19.27
2023-03-05T05:32:39.822Z,20.37
2023-03-05T05:35:07.022Z,19.10
2023-03-05T05:37:33.622Z,16.57
2023-03-05T05:40:00.476Z,22.53
2023-03-05T05:42:27.823Z,16.40
2023-03-05T05:44:55.421Z,20.77
2023-03-05T05:47:22.185Z,17.73
2023-03-05T05:49:48.864Z,19.97
2023-03-05T05:52:15.598Z,18.47
2023-03-05T05:54:42.238Z,20.23
2023-03-05T05:57:08.960Z,20.53
2023-03-05T05:59:36.026Z,18.87
2023-03-05T06:02:03.620Z,14.77
2023-03-05T06:04:30.329Z,20.57
2023-03-05T06:06:58.146Z,15.33
2023-03-05T06:09:24.741Z,16.23
2023-03-05T06:11:51.494Z,14.27
2023-03-05T06:14:18.090Z,15.10
2023-03-05T06:16:44.751Z,16.40
2023-03-05T06:19:15.270Z,14.00
2023-03-05T06:21:43.647Z,20.87
2023-03-05T06:24:11.196Z,12.03
2023-03-05T06:26:37.921Z,13.37
2023-03-05T06:29:04.575Z,19.47
2023-03-05T06:31:31.283Z,17.57
2023-03-05T06:34:01.378Z,15.43
2023-03-05T06:36:28.979Z,15.90
2023-03-05T06:38:56.303Z,14.03
2023-03-05T06:41:30.752Z,16.13
2023-03-05T06:44:00.018Z,16.83
2023-03-05T06:46:29.418Z,15.17
2023-03-05T06:48:58.099Z,14.70
2023-03-05T06:51:25.865Z,19.10
2023-03-05T06:53:53.668Z,12.40
2023-03-05T06:56:21.135Z,17.17
2023-03-05T06:58:51.333Z,15.67
2023-03-05T07:01:19.638Z,15.97
2023-03-05T07:03:50.662Z,11.93
2023-03-05T07:06:18.116Z,15.87
2023-03-05T07:08:45.009Z,12.43
2023-03-05T07:11:18.055Z,10.73
2023-03-05T07:13:47.636Z,13.83
2023-03-05T07:16:17.683Z,13.27
2023-03-05T07:18:44.420Z,14.40
2023-03-05T07:21:18.261Z,14.43
2023-03-05T07:23:45.476Z,10.93
2023-03-05T07:26:12.724Z,11.67
2023-03-05T07:28:39.388Z,13.03
2023-03-05T07:31:12.172Z,14.60
2023-03-05T07:33:38.957Z,8.77
2023-03-05T07:36:08.768Z,11.17
2023-03-05T07:38:35.458Z,12.40
2023-03-05T07:41:07.534Z,11.33
2023-03-05T07:43:34.251Z,11.63
2023-03-05T07:46:04.754Z,15.60
2023-03-05T07:48:31.481Z,15.03
2023-03-05T07:51:09.872Z,12.87
2023-03-05T07:53:36.714Z,11.57
2023-03-05T07:56:03.940Z,11.00
2023-03-05T07:58:30.578Z,11.27
2023-03-05T08:00:57.181Z,8.90
2023-03-05T08:03:24.087Z,12.33
2023-03-05T08:05:51.788Z,11.43
2023-03-05T08:08:18.727Z,11.50
2023-03-05T08:10:45.584Z,14.40
2023-03-05T08:13:12.172Z,10.03
2023-03-05T08:15:38.909Z,15.37
2023-03-05T08:18:05.628Z,12.77
2023-03-05T08:20:35.715Z,11.37
2023-03-05T08:23:03.280Z,14.40
2023-03-05T08:25:30.351Z,14.20
2023-03-05T08:27:57.084Z,10.33
2023-03-05T08:30:27.573Z,14.47
2023-03-05T08:32:55.286Z,13.00
2023-03-05T08:35:22.079Z,11.67
2023-03-05T08:37:48.983Z,11.13
2023-03-05T08:40:17.952Z,10.67
2023-03-05T08:42:45.412Z,8.83
2023-03-05T08:45:12.803Z,11.70
2023-03-05T08:47:39.455Z,11.43
2023-03-05T08:50:06.433Z,9.03
2023-03-05T08:52:33.112Z,10.27
2023-03-05T08:54:59.710Z,9.17
2023-03-05T08:57:26.300Z,13.10
2023-03-05T08:59:52.997Z,12.50
2023-03-05T09:02:19.614Z,11.60
2023-03-05T09:04:46.193Z,9.47
2023-03-05T09:07:13.042Z,11.90
2023-03-05T09:09:40.243Z,12.87
2023-03-05T09:12:07.098Z,10.67
2023-03-05T09:14:33.823Z,16.10
2023-03-05T09:17:01.941Z,9.83
2023-03-05T09:19:28.583Z,16.30
2023-03-05T09:21:56.985Z,14.43
2023-03-05T09:24:23.739Z,12.90
2023-03-05T09:26:50.572Z,11.43
2023-03-05T09:29:17.326Z,17.63
2023-03-05T09:31:44.137Z,15.03
2023-03-05T09:34:11.801Z,10.67
2023-03-05T09:36:38.539Z,9.63
2023-03-05T09:39:06.982Z,7.03
2023-03-05T09:42:05.664Z,14.87
2023-03-05T09:44:58.046Z,9.00
2023-03-05T09:47:43.663Z,6.73
2023-03-05T09:50:41.844Z,9.40
2023-03-05T09:53:30.411Z,9.80
2023-03-05T09:56:04.402Z,7.47
2023-03-05T09:58:37.247Z,12.03
2023-03-05T10:01:18.830Z,10.50
2023-03-05T10:04:03.832Z,11.90
2023-03-05T10:06:36.739Z,8.73
2023-03-05T10:09:21.368Z,7.90
2023-03-05T10:11:56.673Z,9.33
2023-03-05T10:14:30.148Z,11.30
2023-03-05T10:17:26.328Z,10.20
2023-03-05T10:19:58.695Z,16.57
2023-03-05T10:22:31.783Z,9.77
2023-03-05T10:25:26.195Z,17.33
2023-03-05T10:28:05.804Z,15.67
2023-03-05T10:31:10.070Z,10.53
2023-03-05T10:34:00.872Z,14.83
2023-03-05T10:36:50.804Z,22.20
2023-03-05T10:39:26.314Z,17.73
2023-03-05T10:42:22.014Z,12.23
2023-03-05T10:44:58.101Z,11.73
2023-03-05T10:47:36.750Z,11.53
2023-03-05T10:50:21.854Z,12.10
2023-03-05T10:52:55.376Z,10.27
2023-03-05T10:55:22.727Z,11.63
2023-03-05T10:57:49.617Z,8.50
2023-03-05T11:00:25.787Z,9.13
2023-03-05T11:03:01.698Z,12.03
2023-03-05T11:05:46.950Z,11.27
2023-03-05T11:08:26.213Z,10.53
2023-03-05T11:11:09.065Z,11.17
2023-03-05T11:13:51.303Z,6.63
2023-03-05T11:16:48.159Z,9.47
2023-03-05T11:19:41.420Z,9.70
2023-03-05T11:22:24.179Z,8.00
2023-03-05T11:25:15.939Z,9.03
2023-03-05T11:27:53.731Z,10.53
2023-03-05T11:30:31.073Z,7.10
2023-03-05T11:33:15.571Z,7.50
2023-03-05T11:35:43.771Z,8.77
2023-03-05T11:38:41.127Z,7.90
2023-03-05T11:41:10.453Z,6.73
2023-03-05T11:43:41.500Z,7.13
2023-03-05T11:46:12.385Z,7.80
2023-03-05T11:48:41.259Z,7.30
2023-03-05T11:51:33.660Z,7.70
2023-03-05T11:54:07.562Z,7.83
2023-03-05T11:56:37.156Z,7.53
2023-03-05T11:59:24.928Z,7.70
2023-03-05T12:01:54.351Z,6.83
2023-03-05T12:04:22.194Z,7.77
2023-03-05T12:07:01.625Z,6.60
2023-03-05T12:09:43.489Z,9.63
2023-03-05T12:12:36.094Z,7.93
2023-03-05T12:15:11.929Z,7.23
2023-03-05T12:17:51.971Z,19.77
2023-03-05T12:20:33.303Z,13.23
2023-03-05T12:23:00.055Z,16.20
2023-03-05T12:25:28.941Z,12.67
2023-03-05T12:27:55.524Z,8.63
2023-03-05T12:30:34.067Z,12.30
2023-03-05T12:33:03.130Z,11.03
2023-03-05T12:35:38.113Z,10.50
2023-03-05T12:38:32.331Z,16.97
2023-03-05T12:41:27.579Z,11.27
2023-03-05T12:44:07.001Z,8.57
2023-03-05T12:46:37.003Z,6.50
2023-03-05T12:49:18.827Z,9.47
2023-03-05T12:51:47.256Z,5.20
2023-03-05T12:54:31.698Z,11.63
2023-03-05T12:57:01.430Z,6.20
2023-03-05T12:59:36.426Z,4.97
2023-03-05T13:02:16.691Z,6.23
2023-03-05T13:04:45.804Z,4.33
2023-03-05T13:07:17.639Z,5.43
2023-03-05T13:09:55.315Z,4.60
2023-03-05T13:12:24.419Z,5.87
2023-03-05T13:15:03.265Z,4.00
2023-03-05T13:17:38.279Z,4.47
2023-03-05T13:20:27.382Z,5.30
2023-03-05T13:23:18.466Z,5.00
2023-03-05T13:26:18.547Z,5.50
2023-03-05T13:29:18.791Z,4.27
2023-03-05T13:31:47.278Z,6.00
2023-03-05T13:34:32.117Z,5.50
2023-03-05T13:37:07.496Z,5.77
2023-03-05T13:39:43.944Z,6.13
2023-03-05T13:42:20.123Z,48.47
2023-03-05T13:44:58.516Z,13.57
2023-03-05T13:47:30.523Z,12.23
2023-03-05T13:50:06.354Z,8.80
2023-03-05T13:52:36.218Z,19.00
2023-03-05T13:55:12.037Z,14.53
2023-03-05T13:57:42.158Z,12.07
2023-03-05T14:00:33.601Z,8.43
2023-03-05T14:03:09.376Z,8.03
2023-03-05T14:05:36.948Z,6.87
2023-03-05T14:08:03.996Z,7.73
2023-03-05T14:10:35.998Z,9.30
2023-03-05T14:13:11.566Z,6.90
2023-03-05T14:15:39.170Z,6.57
2023-03-05T14:18:11.793Z,6.33
2023-03-05T14:20:59.779Z,7.63
2023-03-05T14:23:32.579Z,5.63
2023-03-05T14:26:34.839Z,8.00
2023-03-05T14:29:13.088Z,11.67
2023-03-05T14:31:53.520Z,16.37
2023-03-05T14:34:30.824Z,8.07
2023-03-05T14:37:03.955Z,8.17
2023-03-05T14:40:07.294Z,5.27
2023-03-05T14:42:38.634Z,5.23
2023-03-05T14:45:18.585Z,5.77
2023-03-05T14:47:45.993Z,5.43
2023-03-05T14:50:27.332Z,6.93
2023-03-05T14:53:00.205Z,10.43
2023-03-05T14:55:31.572Z,8.10
2023-03-05T14:58:04.347Z,14.00
2023-03-05T15:00:31.662Z,15.93
2023-03-05T15:02:58.425Z,7.90
2023-03-05T15:05:25.384Z,5.17
2023-03-05T15:07:52.332Z,4.67
2023-03-05T15:10:21.897Z,6.57
2023-03-05T15:12:50.374Z,4.40
2023-03-05T15:15:18.293Z,5.57
2023-03-05T15:17:51.656Z,8.80
2023-03-05T15:20:24.756Z,8.90
2023-03-05T15:22:52.040Z,8.90
2023-03-05T15:25:20.564Z,5.50
2023-03-05T15:27:47.218Z,8.07
2023-03-05T15:30:35.888Z,7.53
2023-03-05T15:33:06.399Z,6.30
2023-03-05T15:35:33.594Z,8.53
2023-03-05T15:38:00.370Z,14.17
2023-03-05T15:40:30.511Z,13.93
2023-03-05T15:42:58.562Z,10.47
2023-03-05T15:45:25.765Z,7.70
2023-03-05T15:47:53.144Z,6.73
2023-03-05T15:50:21.551Z,16.77
2023-03-05T15:52:49.146Z,7.00
2023-03-05T15:55:18.124Z,13.10
2023-03-05T15:57:48.031Z,10.07
2023-03-05T16:00:17.117Z,9.03
2023-03-05T16:02:43.724Z,8.40
2023-03-05T16:05:10.450Z,45.00
2023-03-05T16:07:40.944Z,12.33
2023-03-05T16:10:11.779Z,10.43
2023-03-05T16:12:43.141Z,7.40
2023-03-05T16:15:17.002Z,5.63
2023-03-05T16:17:47.268Z,7.03
2023-03-05T16:20:15.572Z,7.07
2023-03-05T16:22:42.283Z,5.23
2023-03-05T16:25:09.296Z,7.10
2023-03-05T16:27:35.902Z,10.57
2023-03-05T16:30:04.315Z,5.20
2023-03-05T16:32:31.149Z,5.30
2023-03-05T16:34:58.143Z,6.13
2023-03-05T16:37:25.549Z,5.50
2023-03-05T16:39:52.270Z,9.67
2023-03-05T16:42:18.953Z,4.93
2023-03-05T16:44:47.279Z,6.47
2023-03-05T16:47:14.007Z,6.10
2023-03-05T16:49:40.692Z,6.13
2023-03-05T16:52:18.195Z,6.27
2023-03-05T16:54:45.694Z,6.47
2023-03-05T16:57:12.453Z,4.37
2023-03-05T16:59:39.372Z,5.53
2023-03-05T17:02:06.296Z,12.47
2023-03-05T17:04:32.985Z,10.80
2023-03-05T17:06:59.870Z,6.47
2023-03-05T17:09:26.561Z,6.73
2023-03-05T17:11:54.284Z,6.40
2023-03-05T17:14:21.634Z,7.87
2023-03-05T17:16:48.582Z,5.67
2023-03-05T17:19:15.703Z,6.50
2023-03-05T17:21:42.795Z,4.80
2023-03-05T17:24:10.192Z,4.33
2023-03-05T17:26:37.437Z,5.67
2023-03-05T17:29:05.283Z,5.83
2023-03-05T17:31:32.233Z,17.70
2023-03-05T17:33:58.981Z,11.27
2023-03-05T17:36:25.990Z,11.37
2023-03-05T17:38:53.456Z,10.87
2023-03-05T17:41:20.854Z,8.87
2023-03-05T17:43:47.796Z,10.07
2023-03-05T17:46:15.462Z,6.87
2023-03-05T17:48:42.208Z,9.20
2023-03-05T17:51:12.184Z,9.83
2023-03-05T17:53:40.143Z,9.77
2023-03-05T17:56:08.764Z,9.33
2023-03-05T17:58:36.137Z,5.97
2023-03-05T18:01:04.440Z,7.57
2023-03-05T18:03:31.273Z,6.47
2023-03-05T18:05:57.863Z,6.40
2023-03-05T18:08:24.463Z,7.63
2023-03-05T18:10:51.066Z,8.17
2023-03-05T18:13:18.039Z,6.07
2023-03-05T18:15:47.634Z,7.43
2023-03-05T18:18:18.167Z,11.70
2023-03-05T18:20:45.775Z,7.20
2023-03-05T18:23:13.024Z,6.90
2023-03-05T18:25:39.931Z,11.17
2023-03-05T18:28:13.649Z,8.57
2023-03-05T18:30:41.941Z,9.20
2023-03-05T18:33:13.613Z,8.20
2023-03-05T18:35:40.258Z,11.23
2023-03-05T18:38:06.988Z,7.23
2023-03-05T18:40:35.858Z,8.77
2023-03-05T18:43:03.230Z,11.67
2023-03-05T18:45:30.704Z,13.80
2023-03-05T18:47:57.743Z,8.73
2023-03-05T18:50:26.463Z,8.80
2023-03-05T18:52:53.776Z,14.30
2023-03-05T18:55:27.133Z,6.17
2023-03-05T18:57:54.126Z,8.73
2023-03-05T19:00:24.196Z,7.23
2023-03-05T19:02:51.109Z,8.77
2023-03-05T19:05:18.963Z,8.57
2023-03-05T19:07:46.541Z,10.53
2023-03-05T19:10:14.939Z,7.77
2023-03-05T19:13:05.569Z,9.33
2023-03-05T19:15:32.401Z,7.27
2023-03-05T19:17:59.578Z,7.70
2023-03-05T19:20:26.277Z,8.93
2023-03-05T19:22:55.582Z,14.53
2023-03-05T19:25:22.800Z,11.13
2023-03-05T19:27:49.504Z,7.03
2023-03-05T19:30:16.905Z,10.33
2023-03-05T19:32:45.619Z,7.77
2023-03-05T19:35:15.045Z,7.40
2023-03-05T19:37:42.004Z,12.03
2023-03-05T19:40:09.357Z,6.57
2023-03-05T19:42:37.940Z,8.57
2023-03-05T19:45:05.751Z,7.33
2023-03-05T19:47:32.464Z,10.07
2023-03-05T19:49:59.074Z,8.47
2023-03-05T19:52:26.696Z,10.07
2023-03-05T19:54:53.369Z,6.70
2023-03-05T19:57:19.996Z,12.33
2023-03-05T19:59:46.747Z,10.80
2023-03-05T20:02:13.593Z,9.93
2023-03-05T20:04:40.265Z,11.70
2023-03-05T20:07:07.119Z,12.50
2023-03-05T20:09:33.750Z,8.17
2023-03-05T20:12:02.630Z,8.77
2023-03-05T20:14:29.461Z,11.17
2023-03-05T20:16:56.045Z,12.37
2023-03-05T20:19:22.636Z,10.77
2023-03-05T20:21:49.277Z,13.97
2023-03-05T20:24:18.264Z,10.90
2023-03-05T20:26:46.565Z,8.30
2023-03-05T20:29:17.599Z,9.33
2023-03-05T20:31:46.237Z,8.47
2023-03-05T20:34:15.783Z,9.00
2023-03-05T20:36:42.545Z,12.23
2023-03-05T20:39:09.283Z,8.10
2023-03-05T20:41:38.354Z,7.47
2023-03-05T20:44:05.688Z,10.83
2023-03-05T20:46:35.872Z,9.30
2023-03-05T20:49:04.027Z,10.03
2023-03-05T20:51:34.984Z,9.67
2023-03-05T20:54:07.486Z,9.37
2023-03-05T20:56:35.059Z,12.80
2023-03-05T20:59:04.907Z,9.73
2023-03-05T21:01:34.155Z,9.13
2023-03-05T21:04:02.341Z,6.70
2023-03-05T21:06:30.888Z,8.73
2023-03-05T21:08:58.173Z,7.57
2023-03-05T21:11:24.959Z,9.10
2023-03-05T21:13:51.762Z,9.43
2023-03-05T21:16:22.292Z,7.57
2023-03-05T21:18:50.788Z,8.50
2023-03-05T21:21:18.055Z,8.07
2023-03-05T21:23:45.736Z,11.07
2023-03-05T21:26:13.486Z,12.50
2023-03-05T21:28:40.819Z,10.10
2023-03-05T21:31:10.094Z,8.90
2023-03-05T21:33:37.000Z,15.40
2023-03-05T21:36:05.618Z,6.70
2023-03-05T21:38:34.022Z,11.37
2023-03-05T21:41:01.811Z,8.53
2023-03-05T21:43:30.986Z,12.07
2023-03-05T21:45:58.483Z,10.30
2023-03-05T21:48:25.470Z,13.30
2023-03-05T21:50:52.620Z,12.53
2023-03-05T21:53:19.627Z,9.10
2023-03-05T21:56:02.474Z,13.23
2023-03-05T21:58:31.162Z,9.53
2023-03-05T22:00:58.848Z,12.43
2023-03-05T22:03:26.999Z,8.77
2023-03-05T22:05:54.247Z,9.60
2023-03-05T22:08:22.511Z,9.60
2023-03-05T22:10:49.632Z,12.60
2023-03-05T22:13:17.881Z,8.57
2023-03-05T22:15:45.953Z,12.17
2023-03-05T22:18:14.284Z,9.73
2023-03-05T22:20:41.334Z,10.60
2023-03-05T22:23:08.604Z,9.13
2023-03-05T22:25:36.084Z,12.10
2023-03-05T22:28:03.978Z,13.13
2023-03-05T22:30:31.980Z,7.60
2023-03-05T22:33:02.631Z,9.37
2023-03-05T22:35:29.808Z,12.43
2023-03-05T22:37:58.134Z,8.47
2023-03-05T22:40:24.900Z,13.23
2023-03-05T22:42:51.609Z,9.30
2023-03-05T22:45:18.729Z,12.23
2023-03-05T22:47:51.649Z,8.60
2023-03-05T22:50:18.428Z,13.10
2023-03-05T22:52:45.205Z,15.67
2023-03-05T22:55:14.191Z,7.33
2023-03-05T22:57:41.468Z,13.33
2023-03-05T23:00:13.345Z,10.50
2023-03-05T23:02:41.616Z,11.10
2023-03-05T23:05:09.832Z,18.37
2023-03-05T23:07:39.298Z,10.47
2023-03-05T23:10:26.813Z,8.33
2023-03-05T23:12:55.804Z,14.83
2023-03-05T23:15:25.838Z,9.33
2023-03-05T23:17:52.747Z,11.93
2023-03-05T23:20:22.890Z,15.07
2023-03-05T23:22:52.874Z,13.87
2023-03-05T23:25:22.985Z,9.37
2023-03-05T23:27:50.375Z,14.87
2023-03-05T23:30:37.040Z,11.67
2023-03-05T23:33:15.988Z,12.13
2023-03-05T23:35:50.241Z,11.17
2023-03-05T23:38:17.543Z,14.00
2023-03-05T23:40:49.716Z,11.33
2023-03-05T23:43:18.339Z,13.13
2023-03-05T23:45:48.058Z,13.93
2023-03-05T23:48:15.724Z,11.27
2023-03-05T23:50:45.182Z,15.13
2023-03-05T23:53:17.473Z,14.17
2023-03-05T23:55:44.916Z,15.30
2023-03-05T23:58:12.053Z,11.30
